Terminal Aerodrome Forecast
Issued by NWS

Home | Current Version | Previous Version | Text Only | Print | Product List | Glossary On
Versions: 1 2 3 4 5 6 7 8 9 10 11 12 13
000
FTUS43 KSGF 020000 AAA
TAFJLN
TAF AMD
KJLN 020034Z 0201/0224 18003KT P6SM VCSH SCT050 SCT120
     FM020200 18003KT P6SM SKC
     FM021430 22010G18KT P6SM SKC=

USA.gov is the U.S. government's official web portal to all federal, state and local government web resources and services.